sensor_id;sensor_type;location;lat;lon;timestamp;P1;durP1;ratioP1;P2;durP2;ratioP2
44824;SDS011;30542;47.928;2.138;2023-03-14T00:04:02;4.10;;;0.70;;
44824;SDS011;30542;47.928;2.138;2023-03-14T00:09:04;2.47;;;0.57;;
44824;SDS011;30542;47.928;2.138;2023-03-14T00:14:04;3.27;;;0.50;;
44824;SDS011;30542;47.928;2.138;2023-03-14T00:19:05;1.90;;;0.70;;
44824;SDS011;30542;47.928;2.138;2023-03-14T00:24:05;2.30;;;0.50;;
44824;SDS011;30542;47.928;2.138;2023-03-14T00:29:06;3.17;;;0.60;;
44824;SDS011;30542;47.928;2.138;2023-03-14T00:34:06;2.30;;;0.50;;
44824;SDS011;30542;47.928;2.138;2023-03-14T00:39:07;2.40;;;0.50;;
44824;SDS011;30542;47.928;2.138;2023-03-14T00:44:07;3.93;;;0.60;;
44824;SDS011;30542;47.928;2.138;2023-03-14T00:49:07;2.03;;;0.40;;
44824;SDS011;30542;47.928;2.138;2023-03-14T00:54:08;2.60;;;0.60;;
44824;SDS011;30542;47.928;2.138;2023-03-14T00:59:08;2.88;;;0.55;;
44824;SDS011;30542;47.928;2.138;2023-03-14T01:04:09;3.38;;;0.50;;
44824;SDS011;30542;47.928;2.138;2023-03-14T01:09:10;1.83;;;0.40;;
44824;SDS011;30542;47.928;2.138;2023-03-14T01:14:10;2.38;;;0.40;;
44824;SDS011;30542;47.928;2.138;2023-03-14T01:19:11;1.70;;;0.40;;
44824;SDS011;30542;47.928;2.138;2023-03-14T01:24:11;1.77;;;0.33;;
44824;SDS011;30542;47.928;2.138;2023-03-14T01:29:12;3.20;;;0.80;;
44824;SDS011;30542;47.928;2.138;2023-03-14T01:34:12;3.17;;;0.75;;
44824;SDS011;30542;47.928;2.138;2023-03-14T01:39:13;3.93;;;0.53;;
44824;SDS011;30542;47.928;2.138;2023-03-14T01:44:13;2.33;;;0.80;;
44824;SDS011;30542;47.928;2.138;2023-03-14T01:49:27;2.75;;;0.50;;
44824;SDS011;30542;47.928;2.138;2023-03-14T01:54:43;1.92;;;0.38;;
44824;SDS011;30542;47.928;2.138;2023-03-14T01:59:47;2.72;;;0.70;;
44824;SDS011;30542;47.928;2.138;2023-03-14T02:05:03;2.22;;;0.38;;
44824;SDS011;30542;47.928;2.138;2023-03-14T02:10:05;3.08;;;0.43;;
44824;SDS011;30542;47.928;2.138;2023-03-14T02:15:06;3.08;;;0.40;;
44824;SDS011;30542;47.928;2.138;2023-03-14T02:30:51;2.42;;;0.65;;
44824;SDS011;30542;47.928;2.138;2023-03-14T02:36:02;1.02;;;0.40;;
44824;SDS011;30542;47.928;2.138;2023-03-14T02:41:06;3.38;;;0.70;;
44824;SDS011;30542;47.928;2.138;2023-03-14T02:46:07;3.50;;;0.75;;
44824;SDS011;30542;47.928;2.138;2023-03-14T02:51:11;1.77;;;0.40;;
44824;SDS011;30542;47.928;2.138;2023-03-14T02:56:13;1.98;;;0.50;;
44824;SDS011;30542;47.928;2.138;2023-03-14T03:01:13;1.77;;;0.40;;
44824;SDS011;30542;47.928;2.138;2023-03-14T03:06:14;1.07;;;0.30;;
44824;SDS011;30542;47.928;2.138;2023-03-14T03:11:15;1.38;;;0.30;;
44824;SDS011;30542;47.928;2.138;2023-03-14T03:16:15;1.90;;;0.50;;
44824;SDS011;30542;47.928;2.138;2023-03-14T03:21:16;1.30;;;0.20;;
44824;SDS011;30542;47.928;2.138;2023-03-14T03:26:16;1.13;;;0.40;;
44824;SDS011;30542;47.928;2.138;2023-03-14T03:31:19;1.80;;;0.57;;
44824;SDS011;30542;47.928;2.138;2023-03-14T03:36:21;1.25;;;0.30;;
44824;SDS011;30542;47.928;2.138;2023-03-14T03:41:23;1.70;;;0.50;;
44824;SDS011;30542;47.928;2.138;2023-03-14T03:46:24;1.42;;;0.32;;
44824;SDS011;30542;47.928;2.138;2023-03-14T03:51:25;1.50;;;0.30;;
44824;SDS011;30542;47.928;2.138;2023-03-14T03:56:26;0.50;;;0.20;;
44824;SDS011;30542;47.928;2.138;2023-03-14T04:01:27;1.15;;;0.20;;
44824;SDS011;30542;47.928;2.138;2023-03-14T04:06:27;1.20;;;0.20;;
44824;SDS011;30542;47.928;2.138;2023-03-14T04:11:28;0.50;;;0.10;;
44824;SDS011;30542;47.928;2.138;2023-03-14T04:16:29;0.50;;;0.22;;
44824;SDS011;30542;47.928;2.138;2023-03-14T04:21:31;1.63;;;0.35;;
44824;SDS011;30542;47.928;2.138;2023-03-14T04:26:31;0.50;;;0.10;;
44824;SDS011;30542;47.928;2.138;2023-03-14T04:31:32;0.70;;;0.20;;
44824;SDS011;30542;47.928;2.138;2023-03-14T04:36:32;0.60;;;0.20;;
44824;SDS011;30542;47.928;2.138;2023-03-14T04:41:33;0.50;;;0.20;;
44824;SDS011;30542;47.928;2.138;2023-03-14T04:46:33;0.93;;;0.17;;
44824;SDS011;30542;47.928;2.138;2023-03-14T04:51:33;0.50;;;0.30;;
44824;SDS011;30542;47.928;2.138;2023-03-14T04:56:34;0.87;;;0.30;;
44824;SDS011;30542;47.928;2.138;2023-03-14T05:01:35;0.68;;;0.20;;
44824;SDS011;30542;47.928;2.138;2023-03-14T05:06:35;0.22;;;0.15;;
44824;SDS011;30542;47.928;2.138;2023-03-14T05:11:35;0.40;;;0.20;;
44824;SDS011;30542;47.928;2.138;2023-03-14T05:16:36;0.70;;;0.10;;
44824;SDS011;30542;47.928;2.138;2023-03-14T05:21:36;0.87;;;0.27;;
44824;SDS011;30542;47.928;2.138;2023-03-14T05:26:37;0.57;;;0.10;;
44824;SDS011;30542;47.928;2.138;2023-03-14T05:31:37;1.23;;;0.10;;
44824;SDS011;30542;47.928;2.138;2023-03-14T05:36:37;0.10;;;0.00;;
44824;SDS011;30542;47.928;2.138;2023-03-14T05:41:38;2.15;;;0.22;;
44824;SDS011;30542;47.928;2.138;2023-03-14T05:46:38;0.83;;;0.10;;
44824;SDS011;30542;47.928;2.138;2023-03-14T05:51:39;1.50;;;0.30;;
44824;SDS011;30542;47.928;2.138;2023-03-14T05:56:39;0.97;;;0.10;;
44824;SDS011;30542;47.928;2.138;2023-03-14T06:01:39;0.43;;;0.10;;
44824;SDS011;30542;47.928;2.138;2023-03-14T06:06:40;0.95;;;0.10;;
44824;SDS011;30542;47.928;2.138;2023-03-14T06:11:40;0.43;;;0.10;;
44824;SDS011;30542;47.928;2.138;2023-03-14T06:16:40;0.50;;;0.10;;
44824;SDS011;30542;47.928;2.138;2023-03-14T06:21:41;0.80;;;0.10;;
44824;SDS011;30542;47.928;2.138;2023-03-14T06:26:41;0.83;;;0.17;;
44824;SDS011;30542;47.928;2.138;2023-03-14T06:31:42;0.73;;;0.10;;
44824;SDS011;30542;47.928;2.138;2023-03-14T06:36:42;0.60;;;0.10;;
44824;SDS011;30542;47.928;2.138;2023-03-14T06:41:42;1.15;;;0.20;;
44824;SDS011;30542;47.928;2.138;2023-03-14T06:46:43;1.93;;;0.10;;
44824;SDS011;30542;47.928;2.138;2023-03-14T06:51:43;0.20;;;0.10;;
44824;SDS011;30542;47.928;2.138;2023-03-14T06:56:44;1.03;;;0.13;;
44824;SDS011;30542;47.928;2.138;2023-03-14T07:01:44;2.97;;;0.30;;
44824;SDS011;30542;47.928;2.138;2023-03-14T07:06:44;3.40;;;0.40;;
44824;SDS011;30542;47.928;2.138;2023-03-14T07:11:46;3.25;;;0.30;;
44824;SDS011;30542;47.928;2.138;2023-03-14T07:16:46;2.88;;;0.30;;
44824;SDS011;30542;47.928;2.138;2023-03-14T07:21:47;5.97;;;1.00;;
44824;SDS011;30542;47.928;2.138;2023-03-14T07:26:47;8.97;;;1.10;;
44824;SDS011;30542;47.928;2.138;2023-03-14T07:31:47;9.93;;;1.20;;
44824;SDS011;30542;47.928;2.138;2023-03-14T07:36:48;11.67;;;2.20;;
44824;SDS011;30542;47.928;2.138;2023-03-14T07:41:48;5.50;;;1.40;;
44824;SDS011;30542;47.928;2.138;2023-03-14T07:46:49;3.60;;;1.30;;
44824;SDS011;30542;47.928;2.138;2023-03-14T07:51:49;7.17;;;1.30;;
44824;SDS011;30542;47.928;2.138;2023-03-14T07:56:50;7.47;;;1.10;;
44824;SDS011;30542;47.928;2.138;2023-03-14T08:01:51;4.65;;;0.95;;
44824;SDS011;30542;47.928;2.138;2023-03-14T08:06:52;3.97;;;1.23;;
44824;SDS011;30542;47.928;2.138;2023-03-14T08:11:54;4.50;;;1.08;;
44824;SDS011;30542;47.928;2.138;2023-03-14T08:16:54;2.50;;;0.93;;
44824;SDS011;30542;47.928;2.138;2023-03-14T08:21:55;5.60;;;1.10;;
44824;SDS011;30542;47.928;2.138;2023-03-14T08:26:55;4.30;;;0.90;;
44824;SDS011;30542;47.928;2.138;2023-03-14T08:31:55;4.47;;;1.20;;
44824;SDS011;30542;47.928;2.138;2023-03-14T08:36:56;3.90;;;0.70;;
44824;SDS011;30542;47.928;2.138;2023-03-14T08:41:56;3.97;;;0.95;;
44824;SDS011;30542;47.928;2.138;2023-03-14T08:46:57;3.20;;;0.70;;
44824;SDS011;30542;47.928;2.138;2023-03-14T08:51:57;7.37;;;1.17;;
44824;SDS011;30542;47.928;2.138;2023-03-14T08:56:58;7.80;;;1.63;;
44824;SDS011;30542;47.928;2.138;2023-03-14T09:01:59;4.80;;;1.27;;
44824;SDS011;30542;47.928;2.138;2023-03-14T09:06:59;4.03;;;1.00;;
44824;SDS011;30542;47.928;2.138;2023-03-14T09:11:59;3.77;;;0.70;;
44824;SDS011;30542;47.928;2.138;2023-03-14T09:17:00;6.03;;;0.80;;
44824;SDS011;30542;47.928;2.138;2023-03-14T09:22:00;4.30;;;1.13;;
44824;SDS011;30542;47.928;2.138;2023-03-14T09:27:00;5.67;;;1.07;;
44824;SDS011;30542;47.928;2.138;2023-03-14T09:32:01;3.83;;;0.63;;
44824;SDS011;30542;47.928;2.138;2023-03-14T09:37:02;3.47;;;0.70;;
44824;SDS011;30542;47.928;2.138;2023-03-14T09:42:03;5.40;;;0.85;;
44824;SDS011;30542;47.928;2.138;2023-03-14T09:47:09;1.95;;;0.50;;
44824;SDS011;30542;47.928;2.138;2023-03-14T09:57:26;2.28;;;0.30;;
44824;SDS011;30542;47.928;2.138;2023-03-14T10:02:31;2.78;;;0.68;;
44824;SDS011;30542;47.928;2.138;2023-03-14T10:07:34;2.50;;;0.70;;
44824;SDS011;30542;47.928;2.138;2023-03-14T10:12:36;2.15;;;0.60;;
44824;SDS011;30542;47.928;2.138;2023-03-14T10:17:43;4.10;;;0.77;;
44824;SDS011;30542;47.928;2.138;2023-03-14T10:27:50;2.47;;;0.50;;
44824;SDS011;30542;47.928;2.138;2023-03-14T10:32:51;3.43;;;0.60;;
44824;SDS011;30542;47.928;2.138;2023-03-14T10:38:01;3.87;;;0.50;;
44824;SDS011;30542;47.928;2.138;2023-03-14T10:43:04;3.30;;;0.65;;
44824;SDS011;30542;47.928;2.138;2023-03-14T10:48:20;1.55;;;0.30;;
44824;SDS011;30542;47.928;2.138;2023-03-14T10:53:23;3.13;;;0.65;;
44824;SDS011;30542;47.928;2.138;2023-03-14T10:58:25;2.65;;;0.70;;
44824;SDS011;30542;47.928;2.138;2023-03-14T11:03:28;2.33;;;1.02;;
44824;SDS011;30542;47.928;2.138;2023-03-14T11:08:32;3.95;;;1.52;;
44824;SDS011;30542;47.928;2.138;2023-03-14T11:13:51;3.88;;;1.27;;
44824;SDS011;30542;47.928;2.138;2023-03-14T11:19:16;2.90;;;1.63;;
44824;SDS011;30542;47.928;2.138;2023-03-14T11:24:47;3.20;;;1.42;;
44824;SDS011;30542;47.928;2.138;2023-03-14T11:40:34;3.22;;;1.80;;
44824;SDS011;30542;47.928;2.138;2023-03-14T11:45:36;3.30;;;1.38;;
44824;SDS011;30542;47.928;2.138;2023-03-14T11:50:39;2.72;;;1.73;;
44824;SDS011;30542;47.928;2.138;2023-03-14T11:55:43;3.63;;;1.38;;
44824;SDS011;30542;47.928;2.138;2023-03-14T12:00:45;4.43;;;1.25;;
44824;SDS011;30542;47.928;2.138;2023-03-14T12:11:03;2.83;;;1.30;;
44824;SDS011;30542;47.928;2.138;2023-03-14T12:16:27;2.88;;;1.17;;
44824;SDS011;30542;47.928;2.138;2023-03-14T12:21:48;1.83;;;0.90;;
44824;SDS011;30542;47.928;2.138;2023-03-14T12:26:53;3.70;;;1.10;;
44824;SDS011;30542;47.928;2.138;2023-03-14T12:37:05;3.10;;;1.02;;
44824;SDS011;30542;47.928;2.138;2023-03-14T12:52:33;2.80;;;0.90;;
44824;SDS011;30542;47.928;2.138;2023-03-14T13:02:44;2.15;;;1.20;;
44824;SDS011;30542;47.928;2.138;2023-03-14T13:13:01;2.25;;;1.17;;
44824;SDS011;30542;47.928;2.138;2023-03-14T13:18:13;2.17;;;0.70;;
44824;SDS011;30542;47.928;2.138;2023-03-14T13:23:23;2.72;;;0.95;;
44824;SDS011;30542;47.928;2.138;2023-03-14T13:28:25;2.75;;;0.63;;
44824;SDS011;30542;47.928;2.138;2023-03-14T13:33:27;3.05;;;0.95;;
44824;SDS011;30542;47.928;2.138;2023-03-14T13:38:28;2.70;;;0.90;;
44824;SDS011;30542;47.928;2.138;2023-03-14T13:43:31;1.73;;;0.70;;
44824;SDS011;30542;47.928;2.138;2023-03-14T13:48:34;2.55;;;0.90;;
44824;SDS011;30542;47.928;2.138;2023-03-14T13:53:50;1.63;;;0.65;;
44824;SDS011;30542;47.928;2.138;2023-03-14T13:58:52;1.80;;;0.90;;
44824;SDS011;30542;47.928;2.138;2023-03-14T14:03:53;1.10;;;0.40;;
44824;SDS011;30542;47.928;2.138;2023-03-14T14:08:56;1.15;;;0.60;;
44824;SDS011;30542;47.928;2.138;2023-03-14T14:13:58;1.80;;;0.75;;
44824;SDS011;30542;47.928;2.138;2023-03-14T14:18:59;1.33;;;0.70;;
44824;SDS011;30542;47.928;2.138;2023-03-14T14:24:01;1.95;;;0.70;;
44824;SDS011;30542;47.928;2.138;2023-03-14T14:29:03;1.67;;;0.63;;
44824;SDS011;30542;47.928;2.138;2023-03-14T14:34:17;1.75;;;0.55;;
44824;SDS011;30542;47.928;2.138;2023-03-14T14:39:20;1.65;;;0.60;;
44824;SDS011;30542;47.928;2.138;2023-03-14T14:49:31;1.70;;;0.50;;
44824;SDS011;30542;47.928;2.138;2023-03-14T14:54:33;0.93;;;0.50;;
44824;SDS011;30542;47.928;2.138;2023-03-14T14:59:41;1.10;;;0.40;;
44824;SDS011;30542;47.928;2.138;2023-03-14T15:04:43;1.45;;;0.47;;
44824;SDS011;30542;47.928;2.138;2023-03-14T15:09:43;1.00;;;0.30;;
44824;SDS011;30542;47.928;2.138;2023-03-14T15:14:44;2.10;;;0.50;;
44824;SDS011;30542;47.928;2.138;2023-03-14T15:19:44;1.37;;;0.43;;
44824;SDS011;30542;47.928;2.138;2023-03-14T15:24:44;1.53;;;0.90;;
44824;SDS011;30542;47.928;2.138;2023-03-14T15:29:45;0.80;;;0.40;;
44824;SDS011;30542;47.928;2.138;2023-03-14T15:34:45;1.58;;;0.30;;
44824;SDS011;30542;47.928;2.138;2023-03-14T15:39:46;1.23;;;0.30;;
44824;SDS011;30542;47.928;2.138;2023-03-14T15:44:46;1.67;;;0.60;;
44824;SDS011;30542;47.928;2.138;2023-03-14T15:49:46;1.67;;;0.30;;
44824;SDS011;30542;47.928;2.138;2023-03-14T15:54:47;1.73;;;0.40;;
44824;SDS011;30542;47.928;2.138;2023-03-14T15:59:47;2.17;;;0.40;;
44824;SDS011;30542;47.928;2.138;2023-03-14T16:04:47;2.13;;;0.40;;
44824;SDS011;30542;47.928;2.138;2023-03-14T16:09:48;1.67;;;0.43;;
44824;SDS011;30542;47.928;2.138;2023-03-14T16:14:48;0.53;;;0.30;;
44824;SDS011;30542;47.928;2.138;2023-03-14T16:19:49;2.73;;;0.40;;
44824;SDS011;30542;47.928;2.138;2023-03-14T16:24:49;2.77;;;0.40;;
44824;SDS011;30542;47.928;2.138;2023-03-14T16:29:49;7.37;;;0.70;;
44824;SDS011;30542;47.928;2.138;2023-03-14T16:34:50;3.13;;;0.70;;
44824;SDS011;30542;47.928;2.138;2023-03-14T16:39:50;1.13;;;0.40;;
44824;SDS011;30542;47.928;2.138;2023-03-14T16:44:51;2.37;;;0.40;;
44824;SDS011;30542;47.928;2.138;2023-03-14T16:49:51;2.43;;;0.30;;
44824;SDS011;30542;47.928;2.138;2023-03-14T16:54:51;3.47;;;0.70;;
44824;SDS011;30542;47.928;2.138;2023-03-14T16:59:52;2.67;;;0.53;;
44824;SDS011;30542;47.928;2.138;2023-03-14T17:04:52;5.97;;;0.40;;
44824;SDS011;30542;47.928;2.138;2023-03-14T17:09:52;8.97;;;1.10;;
44824;SDS011;30542;47.928;2.138;2023-03-14T17:14:53;10.25;;;0.90;;
44824;SDS011;30542;47.928;2.138;2023-03-14T17:19:55;6.03;;;0.75;;
44824;SDS011;30542;47.928;2.138;2023-03-14T17:24:55;6.60;;;0.87;;
44824;SDS011;30542;47.928;2.138;2023-03-14T17:29:56;4.20;;;1.17;;
44824;SDS011;30542;47.928;2.138;2023-03-14T17:34:56;4.13;;;0.80;;
44824;SDS011;30542;47.928;2.138;2023-03-14T17:39:56;4.97;;;1.33;;
44824;SDS011;30542;47.928;2.138;2023-03-14T17:45:00;4.53;;;1.05;;
44824;SDS011;30542;47.928;2.138;2023-03-14T17:50:00;4.70;;;0.73;;
44824;SDS011;30542;47.928;2.138;2023-03-14T17:55:04;5.53;;;0.93;;
44824;SDS011;30542;47.928;2.138;2023-03-14T18:00:06;6.47;;;1.23;;
44824;SDS011;30542;47.928;2.138;2023-03-14T18:05:10;3.90;;;0.80;;
44824;SDS011;30542;47.928;2.138;2023-03-14T18:10:11;9.68;;;1.63;;
44824;SDS011;30542;47.928;2.138;2023-03-14T18:15:13;6.82;;;1.30;;
44824;SDS011;30542;47.928;2.138;2023-03-14T18:20:13;6.23;;;1.30;;
44824;SDS011;30542;47.928;2.138;2023-03-14T18:25:14;5.90;;;1.00;;
44824;SDS011;30542;47.928;2.138;2023-03-14T18:30:14;5.28;;;1.00;;
44824;SDS011;30542;47.928;2.138;2023-03-14T18:35:15;5.40;;;1.10;;
44824;SDS011;30542;47.928;2.138;2023-03-14T18:40:16;4.63;;;1.23;;
44824;SDS011;30542;47.928;2.138;2023-03-14T18:45:18;5.40;;;1.20;;
44824;SDS011;30542;47.928;2.138;2023-03-14T18:50:19;1.97;;;0.70;;
44824;SDS011;30542;47.928;2.138;2023-03-14T18:55:19;6.00;;;1.20;;
44824;SDS011;30542;47.928;2.138;2023-03-14T19:00:20;6.22;;;1.83;;
44824;SDS011;30542;47.928;2.138;2023-03-14T19:05:21;5.40;;;1.42;;
44824;SDS011;30542;47.928;2.138;2023-03-14T19:10:21;3.75;;;1.38;;
44824;SDS011;30542;47.928;2.138;2023-03-14T19:15:21;4.47;;;1.10;;
44824;SDS011;30542;47.928;2.138;2023-03-14T19:20:22;3.90;;;1.10;;
44824;SDS011;30542;47.928;2.138;2023-03-14T19:25:23;4.70;;;1.30;;
44824;SDS011;30542;47.928;2.138;2023-03-14T19:30:23;7.37;;;1.80;;
44824;SDS011;30542;47.928;2.138;2023-03-14T19:35:24;4.35;;;1.00;;
44824;SDS011;30542;47.928;2.138;2023-03-14T19:40:24;6.23;;;1.23;;
44824;SDS011;30542;47.928;2.138;2023-03-14T19:45:25;3.63;;;1.33;;
44824;SDS011;30542;47.928;2.138;2023-03-14T19:50:31;3.97;;;0.93;;
44824;SDS011;30542;47.928;2.138;2023-03-14T19:55:32;3.40;;;0.90;;
44824;SDS011;30542;47.928;2.138;2023-03-14T20:00:33;3.20;;;1.20;;
44824;SDS011;30542;47.928;2.138;2023-03-14T20:05:34;1.90;;;0.60;;
44824;SDS011;30542;47.928;2.138;2023-03-14T20:10:38;2.75;;;0.95;;
44824;SDS011;30542;47.928;2.138;2023-03-14T20:15:39;3.20;;;0.90;;
44824;SDS011;30542;47.928;2.138;2023-03-14T20:20:40;2.67;;;0.82;;
44824;SDS011;30542;47.928;2.138;2023-03-14T20:25:41;2.42;;;1.15;;
44824;SDS011;30542;47.928;2.138;2023-03-14T20:30:41;3.00;;;0.93;;
44824;SDS011;30542;47.928;2.138;2023-03-14T20:35:42;4.43;;;1.52;;
44824;SDS011;30542;47.928;2.138;2023-03-14T20:40:46;3.22;;;1.25;;
44824;SDS011;30542;47.928;2.138;2023-03-14T20:45:50;3.17;;;1.00;;
44824;SDS011;30542;47.928;2.138;2023-03-14T20:50:54;2.95;;;0.98;;
44824;SDS011;30542;47.928;2.138;2023-03-14T20:55:55;2.20;;;0.88;;
44824;SDS011;30542;47.928;2.138;2023-03-14T21:00:56;3.38;;;1.13;;
44824;SDS011;30542;47.928;2.138;2023-03-14T21:05:57;2.38;;;0.93;;
44824;SDS011;30542;47.928;2.138;2023-03-14T21:10:57;2.50;;;1.08;;
44824;SDS011;30542;47.928;2.138;2023-03-14T21:15:58;4.00;;;0.93;;
44824;SDS011;30542;47.928;2.138;2023-03-14T21:21:00;1.92;;;0.75;;
44824;SDS011;30542;47.928;2.138;2023-03-14T21:26:00;2.03;;;0.80;;
44824;SDS011;30542;47.928;2.138;2023-03-14T21:31:08;2.50;;;1.05;;
44824;SDS011;30542;47.928;2.138;2023-03-14T21:36:10;2.20;;;0.70;;
44824;SDS011;30542;47.928;2.138;2023-03-14T21:41:11;2.42;;;0.70;;
44824;SDS011;30542;47.928;2.138;2023-03-14T21:46:13;2.92;;;0.80;;
44824;SDS011;30542;47.928;2.138;2023-03-14T21:51:13;2.20;;;0.87;;
44824;SDS011;30542;47.928;2.138;2023-03-14T21:56:13;2.50;;;0.87;;
44824;SDS011;30542;47.928;2.138;2023-03-14T22:01:14;1.70;;;0.87;;
44824;SDS011;30542;47.928;2.138;2023-03-14T22:06:14;4.10;;;0.90;;
44824;SDS011;30542;47.928;2.138;2023-03-14T22:11:15;1.90;;;0.90;;
44824;SDS011;30542;47.928;2.138;2023-03-14T22:16:15;2.17;;;0.77;;
44824;SDS011;30542;47.928;2.138;2023-03-14T22:21:15;1.70;;;0.73;;
44824;SDS011;30542;47.928;2.138;2023-03-14T22:26:16;1.80;;;0.70;;
44824;SDS011;30542;47.928;2.138;2023-03-14T22:31:17;2.03;;;0.70;;
44824;SDS011;30542;47.928;2.138;2023-03-14T22:36:17;1.40;;;0.60;;
44824;SDS011;30542;47.928;2.138;2023-03-14T22:41:17;2.20;;;0.90;;
44824;SDS011;30542;47.928;2.138;2023-03-14T22:46:18;2.90;;;0.87;;
44824;SDS011;30542;47.928;2.138;2023-03-14T22:51:18;1.90;;;0.70;;
44824;SDS011;30542;47.928;2.138;2023-03-14T22:56:19;3.50;;;0.80;;
44824;SDS011;30542;47.928;2.138;2023-03-14T23:01:19;1.23;;;0.50;;
44824;SDS011;30542;47.928;2.138;2023-03-14T23:06:20;1.80;;;0.57;;
44824;SDS011;30542;47.928;2.138;2023-03-14T23:11:20;2.42;;;0.73;;
44824;SDS011;30542;47.928;2.138;2023-03-14T23:16:21;2.75;;;0.60;;
44824;SDS011;30542;47.928;2.138;2023-03-14T23:21:23;2.25;;;0.60;;
44824;SDS011;30542;47.928;2.138;2023-03-14T23:26:24;2.33;;;1.02;;
44824;SDS011;30542;47.928;2.138;2023-03-14T23:31:25;1.55;;;0.80;;
44824;SDS011;30542;47.928;2.138;2023-03-14T23:36:26;2.15;;;0.50;;
44824;SDS011;30542;47.928;2.138;2023-03-14T23:41:26;2.22;;;0.57;;
44824;SDS011;30542;47.928;2.138;2023-03-14T23:46:27;2.90;;;1.07;;
44824;SDS011;30542;47.928;2.138;2023-03-14T23:51:28;2.22;;;0.50;;
44824;SDS011;30542;47.928;2.138;2023-03-14T23:56:28;1.75;;;0.70;;
